createdAt,value
2019-03-27T00:00:51.924Z,8.00
2019-03-27T00:01:51.979Z,7.30
2019-03-27T00:02:51.886Z,10.80
2019-03-27T00:03:51.892Z,11.30
2019-03-27T00:04:51.867Z,7.50
2019-03-27T00:05:51.933Z,8.90
2019-03-27T00:06:51.844Z,7.90
2019-03-27T00:07:51.918Z,15.90
2019-03-27T00:08:51.820Z,8.90
2019-03-27T00:09:51.831Z,8.10
2019-03-27T00:10:51.814Z,10.40
2019-03-27T00:11:51.843Z,13.30
2019-03-27T00:12:51.776Z,6.20
2019-03-27T00:13:51.856Z,9.30
2019-03-27T00:14:51.755Z,3.50
2019-03-27T00:15:51.796Z,10.10
2019-03-27T00:16:51.735Z,11.30
2019-03-27T00:17:51.784Z,9.40
2019-03-27T00:18:51.711Z,7.90
2019-03-27T00:19:51.800Z,7.40
2019-03-27T00:20:51.701Z,8.20
2019-03-27T00:21:51.707Z,14.90
2019-03-27T00:22:51.666Z,10.40
2019-03-27T00:23:51.720Z,13.80
2019-03-27T00:24:51.650Z,11.40
2019-03-27T00:25:51.661Z,9.90
2019-03-27T00:26:51.623Z,13.60
2019-03-27T00:27:52.620Z,10.90
2019-03-27T00:28:51.601Z,11.50
2019-03-27T00:29:52.599Z,9.10
2019-03-27T00:30:51.611Z,12.00
2019-03-27T00:31:52.579Z,6.90
2019-03-27T00:32:51.558Z,6.60
2019-03-27T00:33:51.585Z,13.50
2019-03-27T00:34:51.536Z,9.20
2019-03-27T00:35:51.600Z,8.10
2019-03-27T00:36:51.526Z,11.80
2019-03-27T00:37:51.611Z,11.50
2019-03-27T00:38:51.492Z,10.30
2019-03-27T00:39:51.524Z,12.60
2019-03-27T00:40:51.472Z,10.60
2019-03-27T00:41:51.571Z,4.40
2019-03-27T00:42:51.454Z,9.90
2019-03-27T00:43:51.448Z,12.30
2019-03-27T00:44:51.426Z,13.60
2019-03-27T00:45:51.470Z,13.70
2019-03-27T00:46:51.417Z,11.00
2019-03-27T00:47:51.476Z,11.20
2019-03-27T00:48:51.380Z,16.90
2019-03-27T00:49:51.388Z,14.70
2019-03-27T00:50:51.359Z,14.10
2019-03-27T00:51:51.432Z,14.00
2019-03-27T00:52:51.336Z,10.40
2019-03-27T00:53:51.418Z,8.80
2019-03-27T00:54:51.316Z,12.80
2019-03-27T00:55:51.325Z,9.00
2019-03-27T00:56:51.303Z,13.70
2019-03-27T00:57:51.339Z,16.10
2019-03-27T00:58:51.272Z,17.10
2019-03-27T00:59:51.354Z,14.40
2019-03-27T01:00:51.250Z,11.40
2019-03-27T01:01:51.295Z,17.20
2019-03-27T01:02:51.229Z,7.20
2019-03-27T01:03:51.278Z,17.80
2019-03-27T01:04:51.208Z,14.20
2019-03-27T01:05:51.293Z,9.60
2019-03-27T01:06:51.255Z,17.20
2019-03-27T01:07:51.204Z,13.70
2019-03-27T01:08:51.161Z,12.70
2019-03-27T01:09:51.217Z,16.70
2019-03-27T01:10:51.152Z,16.30
2019-03-27T01:11:51.156Z,14.40
2019-03-27T01:12:51.124Z,17.20
2019-03-27T01:13:53.118Z,11.00
2019-03-27T01:14:51.096Z,8.90
2019-03-27T01:15:53.094Z,23.20
2019-03-27T01:16:51.086Z,23.00
2019-03-27T01:17:52.108Z,14.60
2019-03-27T01:18:51.050Z,13.60
2019-03-27T01:19:51.085Z,14.30
2019-03-27T01:20:51.028Z,18.50
2019-03-27T01:21:51.033Z,12.60
2019-03-27T01:22:51.012Z,14.00
2019-03-27T01:23:50.999Z,13.20
2019-03-27T01:24:50.987Z,8.50
2019-03-27T01:25:50.978Z,15.20
2019-03-27T01:26:50.974Z,17.20
2019-03-27T01:27:50.956Z,20.90
2019-03-27T01:28:50.946Z,9.20
2019-03-27T01:29:50.934Z,11.90
2019-03-27T01:30:50.919Z,15.10
2019-03-27T01:31:50.925Z,14.40
2019-03-27T01:32:50.902Z,19.10
2019-03-27T01:33:50.942Z,13.70
2019-03-27T01:34:50.875Z,13.20
2019-03-27T01:35:50.870Z,11.70
2019-03-27T01:36:50.867Z,29.50
2019-03-27T01:37:50.850Z,12.90
2019-03-27T01:38:50.832Z,10.70
2019-03-27T01:39:50.828Z,12.60
2019-03-27T01:40:50.809Z,15.70
2019-03-27T01:41:50.821Z,9.40
2019-03-27T01:42:50.805Z,8.90
2019-03-27T01:43:50.782Z,10.30
2019-03-27T01:44:50.766Z,21.50
2019-03-27T01:45:53.236Z,11.10
2019-03-27T01:46:50.771Z,12.20
2019-03-27T01:47:50.737Z,9.80
2019-03-27T01:48:50.723Z,10.10
2019-03-27T01:49:50.716Z,18.10
2019-03-27T01:50:50.701Z,14.90
2019-03-27T01:51:50.706Z,12.00
2019-03-27T01:52:50.679Z,10.30
2019-03-27T01:53:50.705Z,13.50
2019-03-27T01:54:50.661Z,14.30
2019-03-27T01:55:50.653Z,12.90
2019-03-27T01:56:50.659Z,6.80
2019-03-27T01:57:50.633Z,11.50
2019-03-27T01:58:50.613Z,11.00
2019-03-27T01:59:50.606Z,14.30
2019-03-27T02:00:50.602Z,11.90
2019-03-27T02:01:50.586Z,11.70
2019-03-27T02:02:50.584Z,12.20
2019-03-27T02:03:50.568Z,16.40
2019-03-27T02:04:50.551Z,12.60
2019-03-27T02:05:50.540Z,17.00
2019-03-27T02:06:50.526Z,11.40
2019-03-27T02:07:50.534Z,10.70
2019-03-27T02:08:50.504Z,13.60
2019-03-27T02:09:50.498Z,10.40
2019-03-27T02:10:50.482Z,10.30
2019-03-27T02:11:50.477Z,11.00
2019-03-27T02:12:50.477Z,11.30
2019-03-27T02:13:50.454Z,15.60
2019-03-27T02:14:50.445Z,9.00
2019-03-27T02:15:50.433Z,9.30
2019-03-27T02:16:50.418Z,8.30
2019-03-27T02:17:50.423Z,15.40
2019-03-27T02:18:50.400Z,12.50
2019-03-27T02:19:50.388Z,12.80
2019-03-27T02:20:50.379Z,14.10
2019-03-27T02:21:50.368Z,10.50
2019-03-27T02:22:50.362Z,15.20
2019-03-27T02:23:50.344Z,19.70
2019-03-27T02:24:50.335Z,15.80
2019-03-27T02:25:50.330Z,12.60
2019-03-27T02:26:50.313Z,14.70
2019-03-27T02:27:50.312Z,18.20
2019-03-27T02:28:50.288Z,9.40
2019-03-27T02:29:50.345Z,11.80
2019-03-27T02:30:50.271Z,9.50
2019-03-27T02:31:50.261Z,12.30
2019-03-27T02:32:50.262Z,9.50
2019-03-27T02:33:50.235Z,14.70
2019-03-27T02:34:50.258Z,7.40
2019-03-27T02:35:50.216Z,10.30
2019-03-27T02:36:50.206Z,16.10
2019-03-27T02:37:50.213Z,13.20
2019-03-27T02:38:50.179Z,14.90
2019-03-27T02:39:50.183Z,11.70
2019-03-27T02:40:50.160Z,8.40
2019-03-27T02:41:50.150Z,16.90
2019-03-27T02:42:50.152Z,8.80
2019-03-27T02:43:50.131Z,16.00
2019-03-27T02:44:50.111Z,13.20
2019-03-27T02:46:23.245Z,18.00
2019-03-27T02:46:51.090Z,14.50
2019-03-27T02:47:50.097Z,18.60
2019-03-27T02:48:50.074Z,11.70
2019-03-27T02:49:50.066Z,9.30
2019-03-27T02:50:50.044Z,9.90
2019-03-27T02:51:50.083Z,11.20
2019-03-27T02:52:50.035Z,7.10
2019-03-27T02:53:50.017Z,5.20
2019-03-27T02:54:50.001Z,13.40
2019-03-27T02:55:50.004Z,8.40
2019-03-27T02:56:49.988Z,10.00
2019-03-27T02:57:49.988Z,16.10
2019-03-27T02:58:49.959Z,11.10
2019-03-27T02:59:49.954Z,16.90
2019-03-27T03:00:49.939Z,8.90
2019-03-27T03:01:49.937Z,8.70
2019-03-27T03:02:49.925Z,13.70
2019-03-27T03:03:49.915Z,18.70
2019-03-27T03:04:49.899Z,11.30
2019-03-27T03:05:49.893Z,12.00
2019-03-27T03:06:49.878Z,11.70
2019-03-27T03:07:49.900Z,11.40
2019-03-27T03:08:49.852Z,10.90
2019-03-27T03:09:49.849Z,8.40
2019-03-27T03:10:49.848Z,12.90
2019-03-27T03:11:49.825Z,10.80
2019-03-27T03:12:49.825Z,11.50
2019-03-27T03:13:49.801Z,12.70
2019-03-27T03:14:49.786Z,11.30
2019-03-27T03:15:49.781Z,8.40
2019-03-27T03:16:49.776Z,7.80
2019-03-27T03:17:49.776Z,13.10
2019-03-27T03:18:49.749Z,8.60
2019-03-27T03:19:49.734Z,8.10
2019-03-27T03:20:49.720Z,10.80
2019-03-27T03:21:49.720Z,6.90
2019-03-27T03:22:49.723Z,13.00
2019-03-27T03:23:49.695Z,7.50
2019-03-27T03:24:49.676Z,12.10
2019-03-27T03:25:49.715Z,11.70
2019-03-27T03:26:51.214Z,7.90
2019-03-27T03:27:49.653Z,18.80
2019-03-27T03:28:49.645Z,15.40
2019-03-27T03:29:49.628Z,13.10
2019-03-27T03:30:49.618Z,12.00
2019-03-27T03:31:49.619Z,9.10
2019-03-27T03:32:49.595Z,12.10
2019-03-27T03:33:49.600Z,11.60
2019-03-27T03:34:49.568Z,10.50
2019-03-27T03:35:49.565Z,6.90
2019-03-27T03:36:49.544Z,12.10
2019-03-27T03:37:49.539Z,7.10
2019-03-27T03:38:49.537Z,20.10
2019-03-27T03:39:49.520Z,14.80
2019-03-27T03:40:49.502Z,9.00
2019-03-27T03:41:49.497Z,8.30
2019-03-27T03:42:49.478Z,8.80
2019-03-27T03:43:49.488Z,13.50
2019-03-27T03:44:49.458Z,11.00
2019-03-27T03:45:49.450Z,8.80
2019-03-27T03:46:59.744Z,7.20
2019-03-27T03:47:50.421Z,10.20
2019-03-27T03:48:49.428Z,9.70
2019-03-27T03:49:49.402Z,12.30
2019-03-27T03:50:49.398Z,8.90
2019-03-27T03:51:49.381Z,9.10
2019-03-27T03:52:49.375Z,10.80
2019-03-27T03:53:49.376Z,6.40
2019-03-27T03:54:49.353Z,15.50
2019-03-27T03:55:49.341Z,13.50
2019-03-27T03:56:49.331Z,8.50
2019-03-27T03:57:49.316Z,14.00
2019-03-27T03:58:49.335Z,10.60
2019-03-27T03:59:49.291Z,9.70
2019-03-27T04:00:49.297Z,10.20
2019-03-27T04:01:49.270Z,12.60
2019-03-27T04:02:49.264Z,11.00
2019-03-27T04:03:49.258Z,11.70
2019-03-27T04:04:49.244Z,11.90
2019-03-27T04:05:49.238Z,10.80
2019-03-27T04:06:49.220Z,9.70
2019-03-27T04:07:49.206Z,10.10
2019-03-27T04:08:49.213Z,10.00
2019-03-27T04:09:49.191Z,14.00
2019-03-27T04:10:49.301Z,6.80
2019-03-27T04:11:49.161Z,9.30
2019-03-27T04:12:49.156Z,7.70
2019-03-27T04:13:49.151Z,11.20
2019-03-27T04:14:49.141Z,13.80
2019-03-27T04:15:49.134Z,4.40
2019-03-27T04:16:49.110Z,10.30
2019-03-27T04:17:49.101Z,8.90
2019-03-27T04:18:49.101Z,13.10
2019-03-27T04:19:49.077Z,7.90
2019-03-27T04:20:49.068Z,9.10
2019-03-27T04:21:49.062Z,14.10
2019-03-27T04:22:49.047Z,13.10
2019-03-27T04:23:49.042Z,8.00
2019-03-27T04:24:49.026Z,9.90
2019-03-27T04:26:09.258Z,11.20
2019-03-27T04:26:50.001Z,12.10
2019-03-27T04:27:48.993Z,7.10
2019-03-27T04:28:48.988Z,11.50
2019-03-27T04:29:48.971Z,12.40
2019-03-27T04:30:48.954Z,7.60
2019-03-27T04:31:48.952Z,10.10
2019-03-27T04:32:48.935Z,10.10
2019-03-27T04:33:48.941Z,6.30
2019-03-27T04:34:48.910Z,8.00
2019-03-27T04:35:48.905Z,6.10
2019-03-27T04:36:48.888Z,9.30
2019-03-27T04:37:48.882Z,9.90
2019-03-27T04:38:48.877Z,10.20
2019-03-27T04:39:48.872Z,10.20
2019-03-27T04:40:48.845Z,4.60
2019-03-27T04:41:48.839Z,10.10
2019-03-27T04:42:48.821Z,9.30
2019-03-27T04:43:48.832Z,14.40
2019-03-27T04:44:48.808Z,8.30
2019-03-27T04:45:48.797Z,6.90
2019-03-27T04:46:48.779Z,7.20
2019-03-27T04:47:48.774Z,6.10
2019-03-27T04:48:48.773Z,8.80
2019-03-27T04:49:48.754Z,10.70
2019-03-27T04:50:48.738Z,6.70
2019-03-27T04:51:48.730Z,6.80
2019-03-27T04:52:48.712Z,9.30
2019-03-27T04:53:48.719Z,12.00
2019-03-27T04:54:48.697Z,5.50
2019-03-27T04:55:48.687Z,14.40
2019-03-27T04:56:48.674Z,13.80
2019-03-27T04:57:48.688Z,8.90
2019-03-27T04:58:48.660Z,10.00
2019-03-27T04:59:48.643Z,7.70
2019-03-27T05:00:48.630Z,7.30
2019-03-27T05:01:48.622Z,8.80
2019-03-27T05:02:48.614Z,8.30
2019-03-27T05:03:48.627Z,6.60
2019-03-27T05:04:48.583Z,12.40
2019-03-27T05:05:48.576Z,13.50
2019-03-27T05:06:48.559Z,12.90
2019-03-27T05:07:48.553Z,9.00
2019-03-27T05:08:48.557Z,9.60
2019-03-27T05:09:48.531Z,9.30
2019-03-27T05:10:48.516Z,12.50
2019-03-27T05:11:48.508Z,10.70
2019-03-27T05:12:48.493Z,9.40
2019-03-27T05:13:48.506Z,8.10
2019-03-27T05:14:48.472Z,12.30
2019-03-27T05:15:48.466Z,15.10
2019-03-27T05:16:48.451Z,8.00
2019-03-27T05:17:48.444Z,11.20
2019-03-27T05:18:48.444Z,10.90
2019-03-27T05:19:48.425Z,13.50
2019-03-27T05:20:48.411Z,8.70
2019-03-27T05:21:48.400Z,5.10
2019-03-27T05:22:48.385Z,7.10
2019-03-27T05:23:48.395Z,14.40
2019-03-27T05:24:48.366Z,11.10
2019-03-27T05:25:48.361Z,3.70
2019-03-27T05:26:48.341Z,9.20
2019-03-27T05:27:48.335Z,12.20
2019-03-27T05:28:48.343Z,11.90
2019-03-27T05:29:48.318Z,7.60
2019-03-27T05:30:48.298Z,9.80
2019-03-27T05:31:48.297Z,8.40
2019-03-27T05:32:48.277Z,3.10
2019-03-27T05:33:48.268Z,7.80
2019-03-27T05:34:48.272Z,5.60
2019-03-27T05:35:48.247Z,8.00
2019-03-27T05:36:48.242Z,4.10
2019-03-27T05:37:48.229Z,7.70
2019-03-27T05:38:48.211Z,7.20
2019-03-27T05:39:48.219Z,8.50
2019-03-27T05:40:48.188Z,7.00
2019-03-27T05:41:48.181Z,8.10
2019-03-27T05:43:00.064Z,7.50
2019-03-27T05:43:49.155Z,9.20
2019-03-27T05:44:48.165Z,11.20
2019-03-27T05:45:48.134Z,6.30
2019-03-27T05:46:48.199Z,9.40
2019-03-27T05:47:58.864Z,8.80
2019-03-27T05:48:49.099Z,4.20
2019-03-27T05:49:48.110Z,9.10
2019-03-27T05:50:48.086Z,10.60
2019-03-27T05:51:48.074Z,12.70
2019-03-27T05:52:48.084Z,6.40
2019-03-27T05:53:48.061Z,10.80
2019-03-27T05:54:48.052Z,8.50
2019-03-27T05:55:48.027Z,8.60
2019-03-27T05:56:48.049Z,9.90
2019-03-27T05:57:48.006Z,7.10
2019-03-27T05:58:47.995Z,7.40
2019-03-27T05:59:48.000Z,11.50
2019-03-27T06:00:47.968Z,11.40
2019-03-27T06:01:47.975Z,9.90
2019-03-27T06:02:47.950Z,11.80
2019-03-27T06:03:47.939Z,14.10
2019-03-27T06:04:47.948Z,9.70
2019-03-27T06:05:47.925Z,10.00
2019-03-27T06:06:47.902Z,6.30
2019-03-27T06:07:47.896Z,5.40
2019-03-27T06:08:47.889Z,9.00
2019-03-27T06:09:47.885Z,7.20
2019-03-27T06:10:47.866Z,9.70
2019-03-27T06:11:47.862Z,8.50
2019-03-27T06:12:47.835Z,9.70
2019-03-27T06:13:47.845Z,7.10
2019-03-27T06:14:47.830Z,7.70
2019-03-27T06:15:47.838Z,14.00
2019-03-27T06:16:47.801Z,10.70
2019-03-27T06:17:47.790Z,5.50
2019-03-27T06:18:47.774Z,7.90
2019-03-27T06:19:47.777Z,9.00
2019-03-27T06:20:47.749Z,4.50
2019-03-27T06:21:47.742Z,7.70
2019-03-27T06:22:47.733Z,11.00
2019-03-27T06:23:47.738Z,11.60
2019-03-27T06:24:47.735Z,8.90
2019-03-27T06:25:47.699Z,3.90
2019-03-27T06:26:47.683Z,8.30
2019-03-27T06:27:47.686Z,8.80
2019-03-27T06:28:47.667Z,3.50
2019-03-27T06:29:47.677Z,5.90
2019-03-27T06:30:47.638Z,5.70
2019-03-27T06:31:47.646Z,8.30
2019-03-27T06:32:47.625Z,9.80
2019-03-27T06:33:47.617Z,5.30
2019-03-27T06:34:47.615Z,7.80
2019-03-27T06:35:47.595Z,5.00
2019-03-27T06:36:47.570Z,6.70
2019-03-27T06:37:47.568Z,11.10
2019-03-27T06:38:47.558Z,12.00
2019-03-27T06:39:47.554Z,7.70
2019-03-27T06:40:47.527Z,13.90
2019-03-27T06:41:47.522Z,7.40
2019-03-27T06:42:47.505Z,6.90
2019-03-27T06:43:47.505Z,7.60
2019-03-27T06:44:47.495Z,7.30
2019-03-27T06:45:47.498Z,24.10
2019-03-27T06:46:47.476Z,10.40
2019-03-27T06:47:47.454Z,10.50
2019-03-27T06:48:47.441Z,3.90
2019-03-27T06:49:47.446Z,8.90
2019-03-27T06:50:47.420Z,5.70
2019-03-27T06:51:47.444Z,4.60
2019-03-27T06:52:47.401Z,6.20
2019-03-27T06:53:47.395Z,4.30
2019-03-27T06:54:47.385Z,12.80
2019-03-27T06:55:47.373Z,11.70
2019-03-27T06:56:47.361Z,8.20
2019-03-27T06:57:47.355Z,5.40
2019-03-27T06:58:54.359Z,7.20
2019-03-27T06:59:48.337Z,4.50
2019-03-27T07:00:47.309Z,6.70
2019-03-27T07:01:47.304Z,6.30
2019-03-27T07:02:47.302Z,7.10
2019-03-27T07:03:47.282Z,7.20
2019-03-27T07:04:47.276Z,7.60
2019-03-27T07:05:47.257Z,5.50
2019-03-27T07:06:47.248Z,10.00
2019-03-27T07:07:47.238Z,9.70
2019-03-27T07:08:47.225Z,6.00
2019-03-27T07:09:47.253Z,9.70
2019-03-27T07:10:47.198Z,4.50
2019-03-27T07:11:47.205Z,8.10
2019-03-27T07:12:47.181Z,6.90
2019-03-27T07:13:47.171Z,8.20
2019-03-27T07:14:47.169Z,9.10
2019-03-27T07:15:47.147Z,8.00
2019-03-27T07:16:47.134Z,2.90
2019-03-27T07:17:47.126Z,12.90
2019-03-27T07:18:47.114Z,4.50
2019-03-27T07:19:47.125Z,9.90
2019-03-27T07:20:47.096Z,6.20
2019-03-27T07:21:47.086Z,6.00
2019-03-27T07:22:47.068Z,5.50
2019-03-27T07:23:47.060Z,6.30
2019-03-27T07:24:47.061Z,8.20
2019-03-27T07:25:47.051Z,4.80
2019-03-27T07:26:47.028Z,5.80
2019-03-27T07:27:47.017Z,4.90
2019-03-27T07:28:47.001Z,6.30
2019-03-27T07:29:47.019Z,10.30
2019-03-27T07:30:46.982Z,7.30
2019-03-27T07:31:46.975Z,8.80
2019-03-27T07:32:46.959Z,2.80
2019-03-27T07:33:46.949Z,2.60
2019-03-27T07:34:46.950Z,7.30
2019-03-27T07:35:46.926Z,6.30
2019-03-27T07:36:46.911Z,12.80
2019-03-27T07:37:46.912Z,2.70
2019-03-27T07:38:46.889Z,7.40
2019-03-27T07:39:46.892Z,7.20
2019-03-27T07:40:46.865Z,8.10
2019-03-27T07:41:46.868Z,8.50
2019-03-27T07:42:46.847Z,4.90
2019-03-27T07:43:46.847Z,4.30
2019-03-27T07:44:46.858Z,8.70
2019-03-27T07:45:46.824Z,8.20
2019-03-27T07:46:46.800Z,4.60
2019-03-27T07:47:48.217Z,5.00
2019-03-27T07:48:53.888Z,3.70
2019-03-27T07:49:47.779Z,5.30
2019-03-27T07:50:46.753Z,7.80
2019-03-27T07:51:46.747Z,7.30
2019-03-27T07:52:46.731Z,5.50
2019-03-27T07:53:46.724Z,3.50
2019-03-27T07:54:46.718Z,9.30
2019-03-27T07:55:46.715Z,3.50
2019-03-27T07:56:46.683Z,5.30
2019-03-27T07:57:46.677Z,5.90
2019-03-27T07:58:46.663Z,6.10
2019-03-27T07:59:46.765Z,3.70
2019-03-27T08:00:46.655Z,6.10
2019-03-27T08:01:46.634Z,5.40
2019-03-27T08:02:46.624Z,6.70
2019-03-27T08:03:46.612Z,8.30
2019-03-27T08:04:46.596Z,4.80
2019-03-27T08:05:46.600Z,6.10
2019-03-27T08:06:46.574Z,4.60
2019-03-27T08:07:46.569Z,10.50
2019-03-27T08:08:46.555Z,2.10
2019-03-27T08:09:46.544Z,7.20
2019-03-27T08:10:46.554Z,3.80
2019-03-27T08:11:46.530Z,4.20
2019-03-27T08:12:46.506Z,7.50
2019-03-27T08:13:46.551Z,4.70
2019-03-27T08:14:46.484Z,5.50
2019-03-27T08:15:46.494Z,3.60
2019-03-27T08:16:46.465Z,4.10
2019-03-27T08:17:46.460Z,8.10
2019-03-27T08:18:46.440Z,3.10
2019-03-27T08:19:46.434Z,5.60
2019-03-27T08:20:46.436Z,8.40
2019-03-27T08:21:46.412Z,6.30
2019-03-27T08:22:46.396Z,9.50
2019-03-27T08:23:46.415Z,3.00
2019-03-27T08:24:46.372Z,8.30
2019-03-27T08:25:46.399Z,3.50
2019-03-27T08:26:46.374Z,6.60
2019-03-27T08:27:47.099Z,6.30
2019-03-27T08:28:47.093Z,3.30
2019-03-27T08:29:47.101Z,5.60
2019-03-27T08:30:47.095Z,5.70
2019-03-27T08:31:46.368Z,3.80
2019-03-27T08:32:46.339Z,3.20
2019-03-27T08:33:46.384Z,6.60
2019-03-27T08:34:46.271Z,9.70
2019-03-27T08:35:47.108Z,3.70
2019-03-27T08:36:46.239Z,2.60
2019-03-27T08:37:47.330Z,3.80
2019-03-27T08:38:46.216Z,4.10
2019-03-27T08:39:47.215Z,3.00
2019-03-27T08:40:46.214Z,6.40
2019-03-27T08:41:46.230Z,6.80
2019-03-27T08:42:46.172Z,2.70
2019-03-27T08:43:46.249Z,8.00
2019-03-27T08:44:46.157Z,4.50
2019-03-27T08:45:48.231Z,4.10
2019-03-27T08:46:46.126Z,4.50
2019-03-27T08:47:47.199Z,7.60
2019-03-27T08:48:46.105Z,4.20
2019-03-27T08:49:47.275Z,5.20
2019-03-27T08:50:46.094Z,6.70
2019-03-27T08:51:46.093Z,11.70
2019-03-27T08:52:46.061Z,4.50
2019-03-27T08:53:46.109Z,7.20
2019-03-27T08:54:46.039Z,5.50
2019-03-27T08:55:46.148Z,2.80
2019-03-27T08:56:46.016Z,4.10
2019-03-27T08:57:46.032Z,4.20
2019-03-27T08:58:45.992Z,4.60
2019-03-27T08:59:46.058Z,3.50
2019-03-27T09:00:45.984Z,7.40
2019-03-27T09:01:46.060Z,7.00
2019-03-27T09:02:45.951Z,7.50
2019-03-27T09:03:45.971Z,4.40
2019-03-27T09:04:45.927Z,7.90
2019-03-27T09:05:46.013Z,8.70
2019-03-27T09:06:45.907Z,6.30
2019-03-27T09:07:45.999Z,4.60
2019-03-27T09:08:45.887Z,5.50
2019-03-27T09:09:45.911Z,3.20
2019-03-27T09:10:45.887Z,4.40
2019-03-27T09:11:45.923Z,4.60
2019-03-27T09:12:45.842Z,4.50
2019-03-27T09:13:45.937Z,2.70
2019-03-27T09:14:45.814Z,4.50
2019-03-27T09:15:45.849Z,7.60
2019-03-27T09:16:45.803Z,5.60
2019-03-27T09:17:45.865Z,2.70
2019-03-27T09:18:45.769Z,2.10
2019-03-27T09:19:45.773Z,4.10
2019-03-27T09:20:45.746Z,3.60
2019-03-27T09:21:45.819Z,5.90
2019-03-27T09:22:45.722Z,5.80
2019-03-27T09:23:46.128Z,2.20
2019-03-27T09:24:45.702Z,4.20
2019-03-27T09:25:45.715Z,4.00
2019-03-27T09:26:45.691Z,3.60
2019-03-27T09:27:45.728Z,6.70
2019-03-27T09:28:45.659Z,5.90
2019-03-27T09:29:45.743Z,5.50
2019-03-27T09:30:45.638Z,3.80
2019-03-27T09:31:49.161Z,2.60
2019-03-27T09:32:45.614Z,4.20
2019-03-27T09:33:52.117Z,1.80
2019-03-27T09:34:45.591Z,2.30
2019-03-27T09:35:46.627Z,2.30
2019-03-27T09:36:45.580Z,3.60
2019-03-27T09:37:45.590Z,6.70
2019-03-27T09:38:45.545Z,2.90
2019-03-27T09:39:45.604Z,5.20
2019-03-27T09:40:45.524Z,3.40
2019-03-27T09:41:45.548Z,5.40
2019-03-27T09:42:45.505Z,4.00
2019-03-27T09:43:45.529Z,4.70
2019-03-27T09:44:45.479Z,5.90
2019-03-27T09:45:45.542Z,5.60
2019-03-27T09:46:45.469Z,4.10
2019-03-27T09:47:45.557Z,8.70
2019-03-27T09:48:45.441Z,6.00
2019-03-27T09:49:49.813Z,6.00
2019-03-27T09:50:45.416Z,4.80
2019-03-27T09:51:45.514Z,2.70
2019-03-27T09:52:45.392Z,4.20
2019-03-27T09:53:45.392Z,4.80
2019-03-27T09:54:45.370Z,5.80
2019-03-27T09:55:45.406Z,9.40
2019-03-27T09:56:45.366Z,3.90
2019-03-27T09:57:45.342Z,6.30
2019-03-27T09:58:45.327Z,3.70
2019-03-27T09:59:45.335Z,2.60
2019-03-27T10:00:45.303Z,3.70
2019-03-27T10:01:45.376Z,2.50
2019-03-27T10:02:45.282Z,7.40
2019-03-27T10:03:45.359Z,3.30
2019-03-27T10:04:45.265Z,4.40
2019-03-27T10:05:45.271Z,3.70
2019-03-27T10:06:45.256Z,3.60
2019-03-27T10:07:45.283Z,1.90
2019-03-27T10:08:45.215Z,1.70
2019-03-27T10:09:45.297Z,3.50
2019-03-27T10:10:45.195Z,1.90
2019-03-27T10:11:45.239Z,3.30
2019-03-27T10:12:45.171Z,3.30
2019-03-27T10:13:46.248Z,4.10
2019-03-27T10:14:47.542Z,2.10
2019-03-27T10:15:45.237Z,2.30
2019-03-27T10:16:45.139Z,4.00
2019-03-27T10:17:45.154Z,1.80
2019-03-27T10:18:47.464Z,4.10
2019-03-27T10:19:47.110Z,1.70
2019-03-27T10:20:45.081Z,4.30
2019-03-27T10:21:45.103Z,1.40
2019-03-27T10:22:45.062Z,2.20
2019-03-27T10:23:45.086Z,3.10
2019-03-27T10:24:45.041Z,2.60
2019-03-27T10:25:45.101Z,2.00
2019-03-27T10:26:45.027Z,1.90
2019-03-27T10:27:45.113Z,3.00
2019-03-27T10:28:45.002Z,1.40
2019-03-27T10:29:45.025Z,1.90
2019-03-27T10:30:44.967Z,3.90
2019-03-27T10:31:45.067Z,3.90
2019-03-27T10:32:44.947Z,5.40
2019-03-27T10:33:44.952Z,4.00
2019-03-27T10:34:44.929Z,2.20
2019-03-27T10:35:44.964Z,2.70
2019-03-27T10:36:44.932Z,1.90
2019-03-27T10:37:44.977Z,3.10
2019-03-27T10:38:44.880Z,3.30
2019-03-27T10:39:44.889Z,2.70
2019-03-27T10:40:44.858Z,4.00
2019-03-27T10:41:44.903Z,3.30
2019-03-27T10:42:44.847Z,2.20
2019-03-27T10:43:44.916Z,5.70
2019-03-27T10:44:44.813Z,6.60
2019-03-27T10:45:44.827Z,2.00
2019-03-27T10:46:44.789Z,5.30
2019-03-27T10:47:44.871Z,1.80
2019-03-27T10:48:52.379Z,2.10
2019-03-27T10:49:45.759Z,2.00
2019-03-27T10:50:44.760Z,2.00
2019-03-27T10:51:44.730Z,1.70
2019-03-27T10:52:44.803Z,3.50
2019-03-27T10:53:44.708Z,2.50
2019-03-27T10:54:44.787Z,2.10
2019-03-27T10:55:44.689Z,3.90
2019-03-27T10:56:44.699Z,3.40
2019-03-27T10:57:44.682Z,2.50
2019-03-27T10:58:44.712Z,4.00
2019-03-27T10:59:44.644Z,1.80
2019-03-27T11:01:07.445Z,2.40
2019-03-27T11:01:44.621Z,2.50
2019-03-27T11:02:44.667Z,3.20
2019-03-27T11:03:44.598Z,3.20
2019-03-27T11:04:44.653Z,3.70
2019-03-27T11:05:44.574Z,2.30
2019-03-27T11:06:44.664Z,4.70
2019-03-27T11:07:44.565Z,4.20
2019-03-27T11:08:44.578Z,3.20
2019-03-27T11:09:44.532Z,4.80
2019-03-27T11:10:44.589Z,4.70
2019-03-27T11:11:44.507Z,2.50
2019-03-27T11:12:44.529Z,4.20
2019-03-27T11:13:44.486Z,5.50
2019-03-27T11:14:44.515Z,3.20
2019-03-27T11:15:44.463Z,2.10
2019-03-27T11:16:44.527Z,1.80
2019-03-27T11:17:44.452Z,2.60
2019-03-27T11:18:44.542Z,5.10
2019-03-27T11:19:44.422Z,2.30
2019-03-27T11:20:45.427Z,1.70
2019-03-27T11:21:44.397Z,3.00
2019-03-27T11:22:44.400Z,2.00
2019-03-27T11:23:44.375Z,3.80
2019-03-27T11:24:44.371Z,1.70
2019-03-27T11:25:44.350Z,6.50
2019-03-27T11:26:44.345Z,4.60
2019-03-27T11:27:44.341Z,2.80
2019-03-27T11:28:44.324Z,3.60
2019-03-27T11:29:44.306Z,5.00
2019-03-27T11:30:44.319Z,5.50
2019-03-27T11:31:44.284Z,3.20
2019-03-27T11:32:44.290Z,3.80
2019-03-27T11:33:44.265Z,3.00
2019-03-27T11:34:44.258Z,3.90
2019-03-27T11:35:44.240Z,7.50
2019-03-27T11:36:44.241Z,3.00
2019-03-27T11:37:44.228Z,3.50
2019-03-27T11:38:44.212Z,3.80
2019-03-27T11:39:44.198Z,3.00
2019-03-27T11:40:44.191Z,3.90
2019-03-27T11:41:44.177Z,4.00
2019-03-27T11:42:44.177Z,5.50
2019-03-27T11:43:54.211Z,5.80
2019-03-27T11:44:45.139Z,5.50
2019-03-27T11:45:44.199Z,4.30
2019-03-27T11:46:44.116Z,4.60
2019-03-27T11:47:44.125Z,4.50
2019-03-27T11:48:44.096Z,4.10
2019-03-27T11:49:44.089Z,3.90
2019-03-27T11:50:45.542Z,5.50
2019-03-27T11:51:44.068Z,3.00
2019-03-27T11:52:44.063Z,5.10
2019-03-27T11:53:44.043Z,4.00
2019-03-27T11:54:44.027Z,5.20
2019-03-27T11:55:44.022Z,3.70
2019-03-27T11:56:44.011Z,5.80
2019-03-27T11:57:44.013Z,4.30
2019-03-27T11:58:43.987Z,4.30
2019-03-27T11:59:53.720Z,4.20
2019-03-27T12:00:54.412Z,5.10
2019-03-27T12:01:44.952Z,3.80
2019-03-27T12:02:43.971Z,3.90
2019-03-27T12:03:43.929Z,2.80
2019-03-27T12:04:43.926Z,3.70
2019-03-27T12:05:45.754Z,3.40
2019-03-27T12:06:43.899Z,3.70
2019-03-27T12:07:43.882Z,4.70
2019-03-27T12:08:43.899Z,3.90
2019-03-27T12:09:43.861Z,5.80
2019-03-27T12:10:43.856Z,5.20
2019-03-27T12:11:43.839Z,5.20
2019-03-27T12:12:43.831Z,4.50
2019-03-27T12:13:43.827Z,4.50
2019-03-27T12:14:43.808Z,3.30
2019-03-27T12:15:43.805Z,3.80
2019-03-27T12:16:43.789Z,4.10
2019-03-27T12:17:43.771Z,3.90
2019-03-27T12:18:43.779Z,2.70
2019-03-27T12:19:43.749Z,4.60
2019-03-27T12:20:57.708Z,3.80
2019-03-27T12:21:44.724Z,4.70
2019-03-27T12:22:56.990Z,3.70
2019-03-27T12:23:44.715Z,2.90
2019-03-27T12:24:43.698Z,3.40
2019-03-27T12:25:43.682Z,3.00
2019-03-27T12:26:43.676Z,2.90
2019-03-27T12:27:43.660Z,2.80
2019-03-27T12:28:43.670Z,2.30
2019-03-27T12:29:43.639Z,2.80
2019-03-27T12:30:43.632Z,7.00
2019-03-27T12:31:43.622Z,3.90
2019-03-27T12:32:43.613Z,6.00
2019-03-27T12:33:43.609Z,5.30
2019-03-27T12:34:43.585Z,4.10
2019-03-27T12:35:43.572Z,2.40
2019-03-27T12:36:43.562Z,4.30
2019-03-27T12:37:43.549Z,4.40
2019-03-27T12:38:43.552Z,3.00
2019-03-27T12:39:43.525Z,1.90
2019-03-27T12:40:43.517Z,5.70
2019-03-27T12:41:43.503Z,2.70
2019-03-27T12:42:43.494Z,4.50
2019-03-27T12:43:43.490Z,7.60
2019-03-27T12:44:43.472Z,3.70
2019-03-27T12:45:43.458Z,3.40
2019-03-27T12:46:43.449Z,2.50
2019-03-27T12:47:43.434Z,2.40
2019-03-27T12:48:43.438Z,3.30
2019-03-27T12:49:43.411Z,4.10
2019-03-27T12:50:44.566Z,2.50
2019-03-27T12:51:43.389Z,2.50
2019-03-27T12:52:43.380Z,3.30
2019-03-27T12:53:43.378Z,3.80
2019-03-27T12:54:43.359Z,2.30
2019-03-27T12:55:43.348Z,8.10
2019-03-27T12:56:43.339Z,2.40
2019-03-27T12:57:43.319Z,3.10
2019-03-27T12:58:43.323Z,4.20
2019-03-27T12:59:43.297Z,4.60
2019-03-27T13:00:43.290Z,3.60
2019-03-27T13:01:43.278Z,2.60
2019-03-27T13:02:43.266Z,8.30
2019-03-27T13:03:44.629Z,3.00
2019-03-27T13:04:43.247Z,2.60
2019-03-27T13:05:43.231Z,2.80
2019-03-27T13:06:43.225Z,2.00
2019-03-27T13:07:50.034Z,2.20
2019-03-27T13:08:44.209Z,6.70
2019-03-27T13:09:43.184Z,3.30
2019-03-27T13:10:43.177Z,3.60